sensor_id;sensor_type;location;lat;lon;timestamp;pressure;altitude;pressure_sealevel;temperature;humidity
9721;BME280;4899;42.644;23.366;2023-03-03T00:01:35;94271.38;;;4.53;100.00
9721;BME280;4899;42.644;23.366;2023-03-03T00:04:00;94266.06;;;4.50;100.00
9721;BME280;4899;42.644;23.366;2023-03-03T00:06:26;94268.41;;;4.41;100.00
9721;BME280;4899;42.644;23.366;2023-03-03T00:08:51;94264.28;;;4.45;100.00
9721;BME280;4899;42.644;23.366;2023-03-03T00:11:17;94263.31;;;4.46;100.00
9721;BME280;4899;42.644;23.366;2023-03-03T00:13:51;94263.81;;;4.43;100.00
9721;BME280;4899;42.644;23.366;2023-03-03T00:16:30;94263.06;;;4.43;100.00
9721;BME280;4899;42.644;23.366;2023-03-03T00:18:57;94258.72;;;4.43;100.00
9721;BME280;4899;42.644;23.366;2023-03-03T00:26:38;94265.59;;;4.48;100.00
9721;BME280;4899;42.644;23.366;2023-03-03T00:29:30;94257.19;;;4.47;100.00
9721;BME280;4899;42.644;23.366;2023-03-03T00:32:15;94256.72;;;4.40;100.00
9721;BME280;4899;42.644;23.366;2023-03-03T00:34:42;94271.69;;;4.47;100.00
9721;BME280;4899;42.644;23.366;2023-03-03T00:37:33;94259.75;;;4.42;100.00
9721;BME280;4899;42.644;23.366;2023-03-03T00:40:24;94255.16;;;4.44;100.00
9721;BME280;4899;42.644;23.366;2023-03-03T00:42:53;94236.59;;;4.39;100.00
9721;BME280;4899;42.644;23.366;2023-03-03T00:50:45;94233.03;;;4.40;100.00
9721;BME280;4899;42.644;23.366;2023-03-03T00:53:13;94222.91;;;4.35;100.00
9721;BME280;4899;42.644;23.366;2023-03-03T00:55:39;94218.56;;;4.35;100.00
9721;BME280;4899;42.644;23.366;2023-03-03T00:58:04;94211.19;;;4.33;100.00
9721;BME280;4899;42.644;23.366;2023-03-03T01:00:30;94212.50;;;4.31;100.00
9721;BME280;4899;42.644;23.366;2023-03-03T01:02:56;94209.41;;;4.34;100.00
9721;BME280;4899;42.644;23.366;2023-03-03T01:05:22;94196.22;;;4.27;100.00
9721;BME280;4899;42.644;23.366;2023-03-03T01:07:47;94203.59;;;4.28;100.00
9721;BME280;4899;42.644;23.366;2023-03-03T01:10:13;94197.28;;;4.21;100.00
9721;BME280;4899;42.644;23.366;2023-03-03T01:12:38;94207.44;;;4.26;100.00
9721;BME280;4899;42.644;23.366;2023-03-03T01:15:06;94201.38;;;4.22;100.00
9721;BME280;4899;42.644;23.366;2023-03-03T01:17:33;94205.13;;;4.29;100.00
9721;BME280;4899;42.644;23.366;2023-03-03T01:19:59;94213.03;;;4.28;100.00
9721;BME280;4899;42.644;23.366;2023-03-03T01:22:25;94194.22;;;4.24;100.00
9721;BME280;4899;42.644;23.366;2023-03-03T01:24:50;94209.94;;;4.31;100.00
9721;BME280;4899;42.644;23.366;2023-03-03T01:27:15;94210.97;;;4.30;100.00
9721;BME280;4899;42.644;23.366;2023-03-03T01:29:41;94203.81;;;4.32;100.00
9721;BME280;4899;42.644;23.366;2023-03-03T01:32:06;94194.94;;;4.29;100.00
9721;BME280;4899;42.644;23.366;2023-03-03T01:34:32;94199.72;;;4.36;100.00
9721;BME280;4899;42.644;23.366;2023-03-03T01:36:58;94198.41;;;4.39;100.00
9721;BME280;4899;42.644;23.366;2023-03-03T01:39:25;94195.38;;;4.37;100.00
9721;BME280;4899;42.644;23.366;2023-03-03T01:41:51;94196.69;;;4.34;100.00
9721;BME280;4899;42.644;23.366;2023-03-03T01:44:16;94182.75;;;4.26;100.00
9721;BME280;4899;42.644;23.366;2023-03-03T01:46:54;94194.41;;;4.32;100.00
9721;BME280;4899;42.644;23.366;2023-03-03T01:49:28;94190.88;;;4.28;100.00
9721;BME280;4899;42.644;23.366;2023-03-03T01:51:59;94187.56;;;4.28;100.00
9721;BME280;4899;42.644;23.366;2023-03-03T01:54:29;94191.91;;;4.27;100.00
9721;BME280;4899;42.644;23.366;2023-03-03T01:57:01;94188.06;;;4.30;100.00
9721;BME280;4899;42.644;23.366;2023-03-03T01:59:36;94181.00;;;3.88;100.00
9721;BME280;4899;42.644;23.366;2023-03-03T02:02:06;94188.13;;;4.20;100.00
9721;BME280;4899;42.644;23.366;2023-03-03T02:04:34;94190.13;;;4.28;100.00
9721;BME280;4899;42.644;23.366;2023-03-03T02:07:02;94193.41;;;4.28;100.00
9721;BME280;4899;42.644;23.366;2023-03-03T02:09:43;94193.69;;;4.27;100.00
9721;BME280;4899;42.644;23.366;2023-03-03T02:12:13;94192.94;;;4.26;100.00
9721;BME280;4899;42.644;23.366;2023-03-03T02:14:40;94187.38;;;4.19;100.00
9721;BME280;4899;42.644;23.366;2023-03-03T02:17:06;94188.09;;;4.25;100.00
9721;BME280;4899;42.644;23.366;2023-03-03T02:22:03;94190.91;;;4.23;100.00
9721;BME280;4899;42.644;23.366;2023-03-03T02:24:41;94197.00;;;4.27;100.00
9721;BME280;4899;42.644;23.366;2023-03-03T02:27:07;94195.97;;;4.28;100.00
9721;BME280;4899;42.644;23.366;2023-03-03T02:29:33;94196.22;;;4.27;100.00
9721;BME280;4899;42.644;23.366;2023-03-03T02:31:58;94194.22;;;4.24;100.00
9721;BME280;4899;42.644;23.366;2023-03-03T02:34:24;94196.00;;;4.23;100.00
9721;BME280;4899;42.644;23.366;2023-03-03T02:36:49;94185.56;;;4.20;100.00
9721;BME280;4899;42.644;23.366;2023-03-03T02:39:22;94186.81;;;4.27;100.00
9721;BME280;4899;42.644;23.366;2023-03-03T02:44:22;94199.50;;;4.32;100.00
9721;BME280;4899;42.644;23.366;2023-03-03T02:46:49;94199.50;;;4.32;100.00
9721;BME280;4899;42.644;23.366;2023-03-03T02:49:21;94192.13;;;4.31;100.00
9721;BME280;4899;42.644;23.366;2023-03-03T02:51:47;94182.25;;;4.24;100.00
9721;BME280;4899;42.644;23.366;2023-03-03T02:54:14;94192.13;;;4.31;100.00
9721;BME280;4899;42.644;23.366;2023-03-03T02:56:40;94182.97;;;4.30;100.00
9721;BME280;4899;42.644;23.366;2023-03-03T02:59:06;94189.78;;;4.35;100.00
9721;BME280;4899;42.644;23.366;2023-03-03T03:01:33;94152.81;;;4.13;100.00
9721;BME280;4899;42.644;23.366;2023-03-03T03:04:10;94184.91;;;4.38;100.00
9721;BME280;4899;42.644;23.366;2023-03-03T03:06:36;94180.41;;;4.30;100.00
9721;BME280;4899;42.644;23.366;2023-03-03T03:09:03;94177.59;;;4.31;100.00
9721;BME280;4899;42.644;23.366;2023-03-03T03:11:29;94176.63;;;4.27;100.00
9721;BME280;4899;42.644;23.366;2023-03-03T03:13:54;94176.91;;;4.26;100.00
9721;BME280;4899;42.644;23.366;2023-03-03T03:16:20;94173.88;;;4.19;100.00
9721;BME280;4899;42.644;23.366;2023-03-03T03:18:45;94177.69;;;4.21;100.00
9721;BME280;4899;42.644;23.366;2023-03-03T03:21:12;94182.22;;;4.29;100.00
9721;BME280;4899;42.644;23.366;2023-03-03T03:23:38;94175.88;;;4.27;100.00
9721;BME280;4899;42.644;23.366;2023-03-03T03:26:04;94164.72;;;4.18;100.00
9721;BME280;4899;42.644;23.366;2023-03-03T03:28:30;94165.75;;;4.17;100.00
9721;BME280;4899;42.644;23.366;2023-03-03T03:30:56;94177.69;;;4.21;100.00
9721;BME280;4899;42.644;23.366;2023-03-03T03:33:21;94177.44;;;4.23;100.00
9721;BME280;4899;42.644;23.366;2023-03-03T03:35:47;94169.59;;;4.14;100.00
9721;BME280;4899;42.644;23.366;2023-03-03T03:38:13;94174.38;;;4.21;100.00
9721;BME280;4899;42.644;23.366;2023-03-03T03:40:39;94164.00;;;4.12;100.00
9721;BME280;4899;42.644;23.366;2023-03-03T03:43:04;94165.31;;;4.10;100.00
9721;BME280;4899;42.644;23.366;2023-03-03T03:45:30;94160.72;;;4.12;100.00
9721;BME280;4899;42.644;23.366;2023-03-03T03:47:56;94154.31;;;4.14;100.00
9721;BME280;4899;42.644;23.366;2023-03-03T03:50:21;94158.16;;;4.12;100.00
9721;BME280;4899;42.644;23.366;2023-03-03T03:52:47;94161.47;;;4.12;100.00
9721;BME280;4899;42.644;23.366;2023-03-03T03:55:12;94157.66;;;4.10;100.00
9721;BME280;4899;42.644;23.366;2023-03-03T03:57:39;94163.34;;;4.01;100.00
9721;BME280;4899;42.644;23.366;2023-03-03T04:00:05;94161.28;;;4.04;100.00
9721;BME280;4899;42.644;23.366;2023-03-03T04:02:30;94150.63;;;3.96;100.00
9721;BME280;4899;42.644;23.366;2023-03-03T04:04:56;94145.31;;;3.93;100.00
9721;BME280;4899;42.644;23.366;2023-03-03T04:07:21;94145.69;;;3.81;100.00
9721;BME280;4899;42.644;23.366;2023-03-03T04:09:47;94163.75;;;3.80;100.00
9721;BME280;4899;42.644;23.366;2023-03-03T04:12:12;94151.25;;;3.83;100.00
9721;BME280;4899;42.644;23.366;2023-03-03T04:14:38;94156.84;;;3.85;100.00
9721;BME280;4899;42.644;23.366;2023-03-03T04:17:03;94152.56;;;3.81;100.00
9721;BME280;4899;42.644;23.366;2023-03-03T04:19:29;94141.41;;;3.77;100.00
9721;BME280;4899;42.644;23.366;2023-03-03T04:21:54;94149.53;;;3.79;100.00
9721;BME280;4899;42.644;23.366;2023-03-03T04:24:19;94153.84;;;3.78;100.00
9721;BME280;4899;42.644;23.366;2023-03-03T04:26:45;94151.31;;;3.78;100.00
9721;BME280;4899;42.644;23.366;2023-03-03T04:29:10;94149.28;;;3.75;100.00
9721;BME280;4899;42.644;23.366;2023-03-03T04:31:36;94149.84;;;3.72;100.00
9721;BME280;4899;42.644;23.366;2023-03-03T04:34:01;94137.34;;;3.70;100.00
9721;BME280;4899;42.644;23.366;2023-03-03T04:36:27;94142.44;;;3.76;100.00
9721;BME280;4899;42.644;23.366;2023-03-03T04:38:52;94143.44;;;3.75;100.00
9721;BME280;4899;42.644;23.366;2023-03-03T04:41:18;94148.75;;;3.78;100.00
9721;BME280;4899;42.644;23.366;2023-03-03T04:43:43;94146.25;;;3.73;100.00
9721;BME280;4899;42.644;23.366;2023-03-03T04:46:10;94129.50;;;3.67;100.00
9721;BME280;4899;42.644;23.366;2023-03-03T04:48:36;94145.22;;;3.74;100.00
9721;BME280;4899;42.644;23.366;2023-03-03T04:51:03;94143.19;;;3.71;100.00
9721;BME280;4899;42.644;23.366;2023-03-03T04:53:28;94136.59;;;3.70;100.00
9721;BME280;4899;42.644;23.366;2023-03-03T04:55:54;94140.63;;;3.76;100.00
9721;BME280;4899;42.644;23.366;2023-03-03T04:58:20;94147.69;;;3.84;100.00
9721;BME280;4899;42.644;23.366;2023-03-03T05:00:46;94151.53;;;3.82;100.00
9721;BME280;4899;42.644;23.366;2023-03-03T05:03:12;94158.91;;;3.83;100.00
9721;BME280;4899;42.644;23.366;2023-03-03T05:05:39;94161.44;;;3.83;100.00
9721;BME280;4899;42.644;23.366;2023-03-03T05:08:05;94157.81;;;3.89;100.00
9721;BME280;4899;42.644;23.366;2023-03-03T05:10:30;94138.81;;;3.82;100.00
9721;BME280;4899;42.644;23.366;2023-03-03T05:12:56;94156.25;;;3.93;100.00
9721;BME280;4899;42.644;23.366;2023-03-03T05:15:21;94152.91;;;4.03;100.00
9721;BME280;4899;42.644;23.366;2023-03-03T05:17:46;94153.94;;;4.02;100.00
9721;BME280;4899;42.644;23.366;2023-03-03T05:20:12;94150.41;;;3.98;100.00
9721;BME280;4899;42.644;23.366;2023-03-03T05:22:38;94160.72;;;4.12;100.00
9721;BME280;4899;42.644;23.366;2023-03-03T05:25:04;94164.72;;;4.18;100.00
9721;BME280;4899;42.644;23.366;2023-03-03T05:27:29;94173.84;;;4.24;100.00
9721;BME280;4899;42.644;23.366;2023-03-03T05:29:55;94161.13;;;4.24;100.00
9721;BME280;4899;42.644;23.366;2023-03-03T05:32:20;94165.41;;;4.28;100.00
9721;BME280;4899;42.644;23.366;2023-03-03T05:34:46;94164.13;;;4.31;100.00
9721;BME280;4899;42.644;23.366;2023-03-03T05:37:11;94164.16;;;4.26;100.00
9721;BME280;4899;42.644;23.366;2023-03-03T05:39:37;94170.44;;;4.33;100.00
9721;BME280;4899;42.644;23.366;2023-03-03T05:42:03;94169.91;;;4.37;100.00
9721;BME280;4899;42.644;23.366;2023-03-03T05:44:28;94169.38;;;4.40;100.00
9721;BME280;4899;42.644;23.366;2023-03-03T05:46:54;94177.72;;;4.45;100.00
9721;BME280;4899;42.644;23.366;2023-03-03T05:49:22;94173.63;;;4.49;100.00
9721;BME280;4899;42.644;23.366;2023-03-03T05:51:47;94177.63;;;4.55;100.00
9721;BME280;4899;42.644;23.366;2023-03-03T05:54:12;94182.19;;;4.58;100.00
9721;BME280;4899;42.644;23.366;2023-03-03T05:56:38;94177.31;;;4.62;100.00
9721;BME280;4899;42.644;23.366;2023-03-03T05:59:03;94177.47;;;4.71;100.00
9721;BME280;4899;42.644;23.366;2023-03-03T06:01:29;94175.16;;;4.74;100.00
9721;BME280;4899;42.644;23.366;2023-03-03T06:03:54;94168.66;;;4.63;100.00
9721;BME280;4899;42.644;23.366;2023-03-03T06:06:19;94178.22;;;4.76;100.00
9721;BME280;4899;42.644;23.366;2023-03-03T06:08:45;94173.53;;;4.83;100.00
9721;BME280;4899;42.644;23.366;2023-03-03T06:11:11;94177.22;;;4.96;100.00
9721;BME280;4899;42.644;23.366;2023-03-03T06:13:37;94167.56;;;4.93;100.00
9721;BME280;4899;42.644;23.366;2023-03-03T06:16:02;94178.19;;;5.00;100.00
9721;BME280;4899;42.644;23.366;2023-03-03T06:18:28;94180.72;;;5.24;100.00
9721;BME280;4899;42.644;23.366;2023-03-03T06:20:54;94177.16;;;5.01;100.00
9721;BME280;4899;42.644;23.366;2023-03-03T06:23:20;94193.38;;;5.10;100.00
9721;BME280;4899;42.644;23.366;2023-03-03T06:25:46;94192.41;;;5.06;100.00
9721;BME280;4899;42.644;23.366;2023-03-03T06:28:12;94191.84;;;5.09;100.00
9721;BME280;4899;42.644;23.366;2023-03-03T06:30:39;94178.19;;;5.00;100.00
9721;BME280;4899;42.644;23.366;2023-03-03T06:33:04;94195.97;;;5.05;100.00
9721;BME280;4899;42.644;23.366;2023-03-03T06:35:30;94178.41;;;5.04;100.00
9721;BME280;4899;42.644;23.366;2023-03-03T06:37:55;94189.78;;;5.11;100.00
9721;BME280;4899;42.644;23.366;2023-03-03T06:40:21;94180.91;;;5.09;100.00
9721;BME280;4899;42.644;23.366;2023-03-03T06:42:46;94190.28;;;5.13;100.00
9721;BME280;4899;42.644;23.366;2023-03-03T06:45:12;94198.38;;;5.20;100.00
9721;BME280;4899;42.644;23.366;2023-03-03T06:47:38;94188.69;;;5.17;100.00
9721;BME280;4899;42.644;23.366;2023-03-03T06:50:04;94198.13;;;5.17;100.00
9721;BME280;4899;42.644;23.366;2023-03-03T06:52:29;94188.16;;;5.20;100.00
9721;BME280;4899;42.644;23.366;2023-03-03T06:54:58;94200.78;;;5.31;100.00
9721;BME280;4899;42.644;23.366;2023-03-03T06:57:32;94193.56;;;5.38;100.00
9721;BME280;4899;42.644;23.366;2023-03-03T07:00:17;94196.19;;;5.51;100.00
9721;BME280;4899;42.644;23.366;2023-03-03T07:02:52;94205.22;;;5.63;100.00
9721;BME280;4899;42.644;23.366;2023-03-03T07:05:23;94205.63;;;5.70;100.00
9721;BME280;4899;42.644;23.366;2023-03-03T07:07:49;94195.56;;;5.78;100.00
9721;BME280;4899;42.644;23.366;2023-03-03T07:10:24;94204.06;;;5.93;100.00
9721;BME280;4899;42.644;23.366;2023-03-03T07:12:49;94199.44;;;5.95;100.00
9721;BME280;4899;42.644;23.366;2023-03-03T07:15:20;94194.97;;;6.05;100.00
9721;BME280;4899;42.644;23.366;2023-03-03T07:17:48;94190.44;;;6.16;100.00
9721;BME280;4899;42.644;23.366;2023-03-03T07:20:21;94191.50;;;6.15;100.00
9721;BME280;4899;42.644;23.366;2023-03-03T07:22:48;94201.09;;;6.23;100.00
9721;BME280;4899;42.644;23.366;2023-03-03T07:25:33;94200.59;;;6.21;100.00
9721;BME280;4899;42.644;23.366;2023-03-03T07:28:31;94199.09;;;6.20;100.00
9721;BME280;4899;42.644;23.366;2023-03-03T07:30:56;94193.63;;;6.27;100.00
9721;BME280;4899;42.644;23.366;2023-03-03T07:35:47;94194.38;;;6.27;100.00
9721;BME280;4899;42.644;23.366;2023-03-03T07:40:47;94189.84;;;5.86;100.00
9721;BME280;4899;42.644;23.366;2023-03-03T07:43:36;94194.81;;;6.48;100.00
9721;BME280;4899;42.644;23.366;2023-03-03T07:48:50;94196.81;;;6.65;100.00
9721;BME280;4899;42.644;23.366;2023-03-03T07:51:22;94191.06;;;6.73;100.00
9721;BME280;4899;42.644;23.366;2023-03-03T07:53:52;94187.06;;;6.67;100.00
9721;BME280;4899;42.644;23.366;2023-03-03T07:56:30;94208.53;;;6.66;100.00
9721;BME280;4899;42.644;23.366;2023-03-03T07:58:58;94192.56;;;6.74;100.00
9721;BME280;4899;42.644;23.366;2023-03-03T08:03:56;94185.75;;;6.83;100.00
9721;BME280;4899;42.644;23.366;2023-03-03T08:08:54;94179.31;;;6.58;100.00
9721;BME280;4899;42.644;23.366;2023-03-03T08:11:23;94185.34;;;6.48;100.00
9721;BME280;4899;42.644;23.366;2023-03-03T08:13:49;94184.94;;;6.41;100.00
9721;BME280;4899;42.644;23.366;2023-03-03T08:18:48;94181.34;;;6.42;100.00
9721;BME280;4899;42.644;23.366;2023-03-03T08:21:24;94176.59;;;6.36;100.00
9721;BME280;4899;42.644;23.366;2023-03-03T08:23:50;94180.97;;;6.35;100.00
9721;BME280;4899;42.644;23.366;2023-03-03T08:26:19;94177.28;;;6.41;100.00
9721;BME280;4899;42.644;23.366;2023-03-03T08:28:45;94167.91;;;6.37;100.00
9721;BME280;4899;42.644;23.366;2023-03-03T08:31:11;94169.69;;;6.36;100.00
9721;BME280;4899;42.644;23.366;2023-03-03T08:33:37;94159.03;;;6.15;100.00
9721;BME280;4899;42.644;23.366;2023-03-03T08:36:04;94171.06;;;6.15;100.00
9721;BME280;4899;42.644;23.366;2023-03-03T08:38:29;94164.59;;;6.04;100.00
9721;BME280;4899;42.644;23.366;2023-03-03T08:40:55;94160.81;;;6.01;100.00
9721;BME280;4899;42.644;23.366;2023-03-03T08:43:20;94166.22;;;6.13;100.00
9721;BME280;4899;42.644;23.366;2023-03-03T08:45:51;94170.91;;;6.25;100.00
9721;BME280;4899;42.644;23.366;2023-03-03T08:48:19;94176.88;;;6.34;100.00
9721;BME280;4899;42.644;23.366;2023-03-03T08:50:45;94177.75;;;6.43;100.00
9721;BME280;4899;42.644;23.366;2023-03-03T08:53:11;94181.19;;;6.53;100.00
9721;BME280;4899;42.644;23.366;2023-03-03T08:55:37;94177.03;;;6.57;100.00
9721;BME280;4899;42.644;23.366;2023-03-03T08:58:03;94180.09;;;6.72;100.00
9721;BME280;4899;42.644;23.366;2023-03-03T09:00:29;94176.78;;;6.72;100.00
9721;BME280;4899;42.644;23.366;2023-03-03T09:02:54;94180.28;;;6.76;100.00
9721;BME280;4899;42.644;23.366;2023-03-03T09:05:21;94185.28;;;6.81;100.00
9721;BME280;4899;42.644;23.366;2023-03-03T09:07:47;94181.50;;;6.92;100.00
9721;BME280;4899;42.644;23.366;2023-03-03T09:10:15;94173.00;;;6.97;100.00
9721;BME280;4899;42.644;23.366;2023-03-03T09:12:43;94176.31;;;6.97;100.00
9721;BME280;4899;42.644;23.366;2023-03-03T09:15:22;94183.13;;;7.02;100.00
9721;BME280;4899;42.644;23.366;2023-03-03T09:17:48;94173.66;;;7.02;100.00
9721;BME280;4899;42.644;23.366;2023-03-03T09:22:47;94175.91;;;7.18;100.00
9721;BME280;4899;42.644;23.366;2023-03-03T09:25:26;94175.13;;;7.17;100.00
9721;BME280;4899;42.644;23.366;2023-03-03T09:27:56;94176.75;;;7.27;100.00
9721;BME280;4899;42.644;23.366;2023-03-03T09:30:37;94176.84;;;7.35;100.00
9721;BME280;4899;42.644;23.366;2023-03-03T09:33:22;94169.56;;;7.29;100.00
9721;BME280;4899;42.644;23.366;2023-03-03T09:38:31;94182.88;;;7.53;100.00
9721;BME280;4899;42.644;23.366;2023-03-03T09:49:33;94177.25;;;7.87;100.00
9721;BME280;4899;42.644;23.366;2023-03-03T09:55:24;94167.91;;;7.47;100.00
9721;BME280;4899;42.644;23.366;2023-03-03T09:58:07;94172.53;;;7.58;100.00
9721;BME280;4899;42.644;23.366;2023-03-03T10:06:35;94167.09;;;7.24;100.00
9721;BME280;4899;42.644;23.366;2023-03-03T10:12:13;94163.28;;;7.35;100.00
9721;BME280;4899;42.644;23.366;2023-03-03T10:29:09;94152.66;;;7.78;100.00
9721;BME280;4899;42.644;23.366;2023-03-03T10:31:55;94154.00;;;7.97;100.00
9721;BME280;4899;42.644;23.366;2023-03-03T10:48:26;94148.69;;;7.71;100.00
9721;BME280;4899;42.644;23.366;2023-03-03T10:53:33;94153.56;;;7.59;100.00
9721;BME280;4899;42.644;23.366;2023-03-03T10:56:32;94139.84;;;7.41;100.00
9721;BME280;4899;42.644;23.366;2023-03-03T11:01:55;94135.41;;;7.47;100.00
9721;BME280;4899;42.644;23.366;2023-03-03T11:25:35;94115.28;;;7.18;100.00
9721;BME280;4899;42.644;23.366;2023-03-03T11:36:30;94111.66;;;6.69;100.00
9721;BME280;4899;42.644;23.366;2023-03-03T11:38:59;94109.63;;;6.66;100.00
9721;BME280;4899;42.644;23.366;2023-03-03T11:45:05;94102.28;;;6.51;100.00
9721;BME280;4899;42.644;23.366;2023-03-03T11:47:51;94108.22;;;6.46;100.00
9721;BME280;4899;42.644;23.366;2023-03-03T11:50:23;94098.09;;;6.41;100.00
9721;BME280;4899;42.644;23.366;2023-03-03T12:21:55;94101.13;;;6.71;100.00
9721;BME280;4899;42.644;23.366;2023-03-03T12:24:37;94104.16;;;6.73;100.00
9721;BME280;4899;42.644;23.366;2023-03-03T12:36:02;94103.13;;;6.74;100.00
9721;BME280;4899;42.644;23.366;2023-03-03T12:41:33;94107.28;;;6.56;100.00
9721;BME280;4899;42.644;23.366;2023-03-03T12:46:50;94112.81;;;6.17;100.00
9721;BME280;4899;42.644;23.366;2023-03-03T12:49:17;94105.47;;;6.43;100.00
9721;BME280;4899;42.644;23.366;2023-03-03T12:55:01;94108.78;;;6.57;100.00
9721;BME280;4899;42.644;23.366;2023-03-03T12:57:42;94102.59;;;6.17;100.00
9721;BME280;4899;42.644;23.366;2023-03-03T13:00:23;94099.06;;;6.45;100.00
9721;BME280;4899;42.644;23.366;2023-03-03T13:02:58;94103.19;;;6.41;100.00
9721;BME280;4899;42.644;23.366;2023-03-03T13:11:20;94097.50;;;6.31;100.00
9721;BME280;4899;42.644;23.366;2023-03-03T13:14:03;94099.22;;;6.35;100.00
9721;BME280;4899;42.644;23.366;2023-03-03T13:16:40;94090.03;;;6.34;100.00
9721;BME280;4899;42.644;23.366;2023-03-03T13:19:36;94089.56;;;6.32;100.00
9721;BME280;4899;42.644;23.366;2023-03-03T13:22:08;94091.38;;;6.32;100.00
9721;BME280;4899;42.644;23.366;2023-03-03T13:27:12;94092.75;;;6.10;100.00
9721;BME280;4899;42.644;23.366;2023-03-03T13:29:42;94089.91;;;6.12;100.00
9721;BME280;4899;42.644;23.366;2023-03-03T13:32:18;94079.88;;;6.02;100.00
9721;BME280;4899;42.644;23.366;2023-03-03T13:35:03;94096.25;;;6.14;100.00
9721;BME280;4899;42.644;23.366;2023-03-03T13:45:29;94089.34;;;6.01;100.00
9721;BME280;4899;42.644;23.366;2023-03-03T13:50:52;94085.56;;;5.99;100.00
9721;BME280;4899;42.644;23.366;2023-03-03T13:53:44;94083.81;;;5.94;100.00
9721;BME280;4899;42.644;23.366;2023-03-03T13:56:22;94083.31;;;5.60;100.00
9721;BME280;4899;42.644;23.366;2023-03-03T13:58:59;94078.53;;;5.91;100.00
9721;BME280;4899;42.644;23.366;2023-03-03T14:04:04;94075.00;;;5.86;100.00
9721;BME280;4899;42.644;23.366;2023-03-03T14:06:30;94071.69;;;5.86;100.00
9721;BME280;4899;42.644;23.366;2023-03-03T14:20:27;94089.25;;;5.87;100.00
9721;BME280;4899;42.644;23.366;2023-03-03T14:23:00;94082.13;;;5.90;100.00
9721;BME280;4899;42.644;23.366;2023-03-03T14:25:26;94079.63;;;5.84;100.00
9721;BME280;4899;42.644;23.366;2023-03-03T14:28:11;94076.03;;;5.85;100.00
9721;BME280;4899;42.644;23.366;2023-03-03T14:30:42;94072.44;;;5.86;100.00
9721;BME280;4899;42.644;23.366;2023-03-03T14:35:42;94068.56;;;5.89;100.00
9721;BME280;4899;42.644;23.366;2023-03-03T14:38:21;94071.63;;;5.91;100.00
9721;BME280;4899;42.644;23.366;2023-03-03T14:40:48;94070.81;;;5.96;100.00
9721;BME280;4899;42.644;23.366;2023-03-03T14:43:39;94081.97;;;6.00;100.00
9721;BME280;4899;42.644;23.366;2023-03-03T14:46:37;94078.06;;;5.70;100.00
9721;BME280;4899;42.644;23.366;2023-03-03T14:49:13;94078.09;;;5.83;100.00
9721;BME280;4899;42.644;23.366;2023-03-03T14:51:47;94073.41;;;5.91;100.00
9721;BME280;4899;42.644;23.366;2023-03-03T14:54:24;94083.34;;;5.92;100.00
9721;BME280;4899;42.644;23.366;2023-03-03T14:57:00;94076.09;;;5.99;100.00
9721;BME280;4899;42.644;23.366;2023-03-03T14:59:27;94072.78;;;5.99;100.00
9721;BME280;4899;42.644;23.366;2023-03-03T15:04:43;94066.47;;;6.10;100.00
9721;BME280;4899;42.644;23.366;2023-03-03T15:09:52;94069.50;;;6.12;100.00
9721;BME280;4899;42.644;23.366;2023-03-03T15:12:23;94061.81;;;6.12;100.00
9721;BME280;4899;42.644;23.366;2023-03-03T15:15:01;94075.34;;;6.12;100.00
9721;BME280;4899;42.644;23.366;2023-03-03T15:20:09;94074.69;;;5.74;100.00
9721;BME280;4899;42.644;23.366;2023-03-03T15:25:21;94078.19;;;5.78;100.00
9721;BME280;4899;42.644;23.366;2023-03-03T15:30:50;94080.16;;;6.00;100.00
9721;BME280;4899;42.644;23.366;2023-03-03T15:33:58;94073.53;;;5.99;100.00
9721;BME280;4899;42.644;23.366;2023-03-03T15:37:14;94068.81;;;6.06;100.00
9721;BME280;4899;42.644;23.366;2023-03-03T15:45:24;94071.75;;;6.00;100.00
9721;BME280;4899;42.644;23.366;2023-03-03T15:53:34;94078.19;;;5.97;100.00
9721;BME280;4899;42.644;23.366;2023-03-03T15:56:13;94079.88;;;6.02;100.00
9721;BME280;4899;42.644;23.366;2023-03-03T16:04:13;94082.44;;;6.02;100.00
9721;BME280;4899;42.644;23.366;2023-03-03T16:07:09;94092.09;;;6.05;100.00
9721;BME280;4899;42.644;23.366;2023-03-03T16:09:53;94095.97;;;6.02;100.00
9721;BME280;4899;42.644;23.366;2023-03-03T16:15:35;94104.38;;;6.03;100.00
9721;BME280;4899;42.644;23.366;2023-03-03T16:20:56;94105.81;;;6.09;100.00
9721;BME280;4899;42.644;23.366;2023-03-03T16:31:35;94106.41;;;6.33;100.00
9721;BME280;4899;42.644;23.366;2023-03-03T16:36:51;94112.19;;;6.53;100.00
9721;BME280;4899;42.644;23.366;2023-03-03T16:42:28;94104.91;;;6.46;100.00
9721;BME280;4899;42.644;23.366;2023-03-03T16:58:42;94140.56;;;6.37;100.00
9721;BME280;4899;42.644;23.366;2023-03-03T17:01:20;94155.88;;;6.37;100.00
9721;BME280;4899;42.644;23.366;2023-03-03T17:03:58;94149.06;;;6.33;100.00
9721;BME280;4899;42.644;23.366;2023-03-03T17:06:35;94151.44;;;6.29;100.00
9721;BME280;4899;42.644;23.366;2023-03-03T17:19:54;94147.38;;;6.28;100.00
9721;BME280;4899;42.644;23.366;2023-03-03T17:36:23;94170.63;;;6.27;100.00
9721;BME280;4899;42.644;23.366;2023-03-03T17:41:57;94169.88;;;6.26;100.00
9721;BME280;4899;42.644;23.366;2023-03-03T17:47:04;94178.09;;;6.23;100.00
9721;BME280;4899;42.644;23.366;2023-03-03T17:57:59;94185.41;;;6.30;100.00
9721;BME280;4899;42.644;23.366;2023-03-03T18:05:38;94199.47;;;6.27;100.00
9721;BME280;4899;42.644;23.366;2023-03-03T18:21:29;94199.97;;;6.29;100.00
9721;BME280;4899;42.644;23.366;2023-03-03T18:26:49;94209.13;;;6.30;100.00
9721;BME280;4899;42.644;23.366;2023-03-03T18:32:00;94211.22;;;6.28;100.00
9721;BME280;4899;42.644;23.366;2023-03-03T18:34:32;94192.25;;;6.15;100.00
9721;BME280;4899;42.644;23.366;2023-03-03T18:37:09;94212.34;;;6.22;100.00
9721;BME280;4899;42.644;23.366;2023-03-03T18:44:41;94221.03;;;6.21;100.00
9721;BME280;4899;42.644;23.366;2023-03-03T18:47:08;94220.94;;;6.26;100.00
9721;BME280;4899;42.644;23.366;2023-03-03T18:49:56;94237.31;;;6.25;100.00
9721;BME280;4899;42.644;23.366;2023-03-03T18:52:30;94241.38;;;6.26;100.00
9721;BME280;4899;42.644;23.366;2023-03-03T18:55:03;94242.44;;;6.25;100.00
9721;BME280;4899;42.644;23.366;2023-03-03T19:00:51;94241.59;;;6.30;100.00
9721;BME280;4899;42.644;23.366;2023-03-03T19:05:51;94241.88;;;6.28;100.00
9721;BME280;4899;42.644;23.366;2023-03-03T19:11:50;94254.34;;;6.30;100.00
9721;BME280;4899;42.644;23.366;2023-03-03T19:14:30;94248.09;;;6.22;100.00